Time;durP1;ratioP1;P1;durP2;ratioP2;P2;SDS_P1;SDS_P2;PMS_P1;PMS_P2;Temp;Humidity;BMP_temperature;BMP_pressure;BME280_temperature;BME280_humidity;BME280_pressure;Samples;Min_cycle;Max_cycle;Signal;HPM_P1;HPM_P2
2022/04/29 00:02:17;;;;;;;31.15;13.85;;;;;;;9.89;60.49;100181.28;1778678;81;21018;-41
2022/04/29 00:04:43;;;;;;;18.52;12.58;;;;;;;9.88;61.56;100183.06;1778968;81;20967;-41
2022/04/29 00:07:11;;;;;;;23.77;13.28;;;;;;;9.88;61.81;100180.91;1778688;80;21018;-46
2022/04/29 00:09:37;;;;;;;29.12;13.95;;;;;;;9.88;61.89;100183.53;1778840;81;20987;-44
2022/04/29 00:12:06;;;;;;;24.98;13.30;;;;;;;9.88;62.24;100179.59;1778725;81;20990;-46
2022/04/29 00:14:32;;;;;;;23.32;13.00;;;;;;;9.87;61.55;100176.08;1778776;80;21015;-39
2022/04/29 00:16:59;;;;;;;25.05;13.28;;;;;;;9.90;62.19;100177.75;1778650;81;21022;-45
2022/04/29 00:19:26;;;;;;;22.00;13.57;;;;;;;9.90;62.03;100177.28;1778924;80;21473;-45
2022/04/29 00:21:51;;;;;;;22.17;14.05;;;;;;;9.91;62.71;100175.04;1779003;81;20971;-43
2022/04/29 00:24:17;;;;;;;22.80;12.85;;;;;;;9.90;63.50;100168.09;1756867;81;20980;-47
2022/04/29 00:26:43;;;;;;;25.15;13.83;;;;;;;9.92;62.79;100174.14;1778650;81;20984;-47
2022/04/29 00:29:09;;;;;;;23.02;12.58;;;;;;;9.95;62.82;100174.03;1778685;81;20972;-47
2022/04/29 00:31:35;;;;;;;24.80;12.65;;;;;;;9.98;61.96;100173.89;1778664;81;21018;-47
2022/04/29 00:34:01;;;;;;;24.18;12.35;;;;;;;10.02;61.66;100179.03;1778690;80;21040;-43
2022/04/29 00:36:28;;;;;;;19.45;11.95;;;;;;;10.06;61.25;100176.69;1778613;80;20959;-44
2022/04/29 00:38:53;;;;;;;23.62;12.73;;;;;;;10.10;61.43;100182.23;1778666;80;20992;-43
2022/04/29 00:41:22;;;;;;;21.30;12.60;;;;;;;10.14;61.30;100188.61;1778759;81;21422;-44
2022/04/29 00:44:09;;;;;;;19.25;11.88;;;;;;;10.12;62.54;100180.41;1778831;81;20987;-42
2022/04/29 00:46:44;;;;;;;20.08;12.58;;;;;;;10.13;62.29;100170.27;1778858;81;21023;-46
2022/04/29 00:49:14;;;;;;;22.82;11.65;;;;;;;10.11;63.18;100174.73;1778831;81;20991;-44
2022/04/29 00:51:44;;;;;;;22.05;12.50;;;;;;;10.11;61.96;100172.95;1778861;81;21553;-42
2022/04/29 00:54:14;;;;;;;23.18;13.08;;;;;;;10.09;61.17;100166.91;1778584;81;20983;-47
2022/04/29 00:56:42;;;;;;;22.70;12.68;;;;;;;10.11;61.58;100172.11;1778738;80;20986;-39
2022/04/29 00:59:15;;;;;;;24.20;12.20;;;;;;;10.08;61.14;100164.37;1778849;80;20967;-43
2022/04/29 01:01:45;;;;;;;28.62;13.00;;;;;;;10.03;61.46;100164.53;1778940;81;20960;-44
2022/04/29 01:04:16;;;;;;;27.45;13.55;;;;;;;10.02;61.63;100158.86;1778788;80;20959;-41
2022/04/29 01:06:42;;;;;;;20.88;12.55;;;;;;;10.01;62.02;100162.89;1778601;80;21436;-41
2022/04/29 01:09:08;;;;;;;25.25;11.40;;;;;;;9.97;62.30;100159.06;1778972;80;21035;-41
2022/04/29 01:11:34;;;;;;;25.82;13.10;;;;;;;9.90;63.05;100162.84;1778805;81;21023;-44
2022/04/29 01:14:00;;;;;;;24.32;13.25;;;;;;;9.87;63.21;100162.10;1778829;81;20980;-50
2022/04/29 01:16:25;;;;;;;24.63;13.53;;;;;;;9.85;63.24;100159.53;1778785;81;20991;-46
2022/04/29 01:18:53;;;;;;;24.57;12.63;;;;;;;9.89;62.20;100158.48;1778769;81;21108;-40
2022/04/29 01:21:19;;;;;;;32.58;13.90;;;;;;;9.91;61.97;100157.97;1778941;81;21468;-48
2022/04/29 01:23:45;;;;;;;28.52;14.13;;;;;;;9.92;62.04;100156.22;1778962;80;21445;-42
2022/04/29 01:26:15;;;;;;;29.10;12.80;;;;;;;9.93;62.04;100159.22;1778784;81;20976;-41
2022/04/29 01:28:39;;;;;;;23.32;12.43;;;;;;;9.91;62.50;100156.65;1778415;81;21430;-40
2022/04/29 01:31:06;;;;;;;20.80;13.30;;;;;;;9.90;62.23;100156.27;1778814;81;20980;-47
2022/04/29 01:33:33;;;;;;;25.52;13.83;;;;;;;9.89;62.58;100150.60;1778817;81;20992;-50
2022/04/29 01:35:58;;;;;;;32.73;13.93;;;;;;;9.89;62.62;100153.70;1778949;80;20999;-43
2022/04/29 01:38:24;;;;;;;31.30;14.10;;;;;;;9.84;63.30;100149.07;1778906;81;20986;-45
2022/04/29 01:40:50;;;;;;;24.23;14.35;;;;;;;9.82;62.86;100146.97;1784285;80;21022;-50
2022/04/29 01:43:17;;;;;;;30.68;15.38;;;;;;;9.79;62.77;100146.17;1784377;80;21508;-42
2022/04/29 01:45:44;;;;;;;28.07;15.28;;;;;;;9.76;63.03;100148.06;1784530;80;20979;-48
2022/04/29 01:48:10;;;;;;;25.70;14.58;;;;;;;9.72;63.10;100146.47;1784331;80;20955;-44
2022/04/29 01:50:36;;;;;;;29.92;14.80;;;;;;;9.69;64.36;100141.33;1784272;80;20979;-48
2022/04/29 01:53:01;;;;;;;27.35;13.85;;;;;;;9.64;65.09;100144.58;1784313;80;20986;-42
2022/04/29 01:55:27;;;;;;;25.27;15.38;;;;;;;9.64;64.76;100143.27;1784263;80;21411;-45
2022/04/29 01:57:53;;;;;;;36.03;15.55;;;;;;;9.60;64.61;100139.90;1784313;80;20979;-48
2022/04/29 02:00:19;;;;;;;31.00;14.87;;;;;;;9.58;65.08;100137.33;1784367;80;20974;-45
2022/04/29 02:02:45;;;;;;;33.55;15.43;;;;;;;9.56;65.48;100139.16;1784363;80;21512;-44
2022/04/29 02:05:11;;;;;;;35.17;15.32;;;;;;;9.55;65.15;100140.09;1784284;80;21031;-40
2022/04/29 02:07:37;;;;;;;35.75;14.47;;;;;;;9.50;65.83;100141.17;1784319;80;20984;-42
2022/04/29 02:10:04;;;;;;;28.15;13.83;;;;;;;9.45;66.57;100142.65;1784295;80;20983;-42
2022/04/29 02:12:29;;;;;;;29.70;14.30;;;;;;;9.43;66.59;100140.54;1784415;80;20983;-44
2022/04/29 02:14:56;;;;;;;33.90;14.68;;;;;;;9.39;66.70;100142.89;1784357;80;21489;-40
2022/04/29 02:17:22;;;;;;;42.67;14.98;;;;;;;9.36;67.06;100139.05;1784275;80;21429;-40
2022/04/29 02:19:48;;;;;;;39.20;16.25;;;;;;;9.34;66.89;100134.31;1784282;80;21030;-43
2022/04/29 02:22:13;;;;;;;30.25;14.23;;;;;;;9.35;66.17;100140.83;1784277;80;20980;-51
2022/04/29 02:24:39;;;;;;;34.53;15.80;;;;;;;9.29;67.30;100135.78;1784263;80;20986;-50
2022/04/29 02:27:07;;;;;;;43.48;16.60;;;;;;;9.28;66.80;100132.77;1784328;80;20975;-42
2022/04/29 02:29:33;;;;;;;40.00;16.55;;;;;;;9.26;66.93;100128.48;1784586;80;21030;-41
2022/04/29 02:31:59;;;;;;;36.60;15.30;;;;;;;9.24;67.57;100128.56;1784288;80;20983;-44
2022/04/29 02:34:26;;;;;;;37.85;15.43;;;;;;;9.19;67.34;100128.71;1784279;80;21027;-45
2022/04/29 02:36:52;;;;;;;41.40;15.57;;;;;;;9.15;67.78;100131.05;1784492;80;21484;-44
2022/04/29 02:39:19;;;;;;;47.40;16.17;;;;;;;9.16;67.61;100135.84;1785175;80;21341;-40
2022/04/29 02:43:29;;;;;;;40.67;16.73;;;;;;;9.11;69.49;100126.80;1800272;79;22890;-37
2022/04/29 02:45:55;;;;;;;42.48;16.70;;;;;;;9.02;68.54;100125.39;1760243;80;21073;-41
2022/04/29 02:48:21;;;;;;;52.20;17.82;;;;;;;9.00;68.60;100129.84;1760609;80;21073;-42
2022/04/29 02:50:47;;;;;;;50.92;19.15;;;;;;;9.02;67.51;100127.13;1761203;80;21057;-38
2022/04/29 02:53:12;;;;;;;56.60;20.02;;;;;;;9.00;67.39;100122.41;1761752;80;21035;-47
2022/04/29 02:55:38;;;;;;;46.60;19.30;;;;;;;8.99;67.47;100117.63;1761749;80;21003;-39
2022/04/29 02:58:04;;;;;;;50.33;19.52;;;;;;;8.99;67.80;100124.64;1761753;81;21038;-43
2022/04/29 03:00:30;;;;;;;46.80;17.87;;;;;;;8.96;68.64;100119.03;1761777;81;20992;-45
2022/04/29 03:02:55;;;;;;;48.17;19.27;;;;;;;8.95;69.11;100123.02;1761782;81;21500;-42
2022/04/29 03:05:21;;;;;;;53.90;20.88;;;;;;;8.93;69.02;100120.47;1761785;80;21542;-45
2022/04/29 03:07:47;;;;;;;60.88;20.08;;;;;;;8.94;69.62;100122.63;1761843;81;21453;-45
2022/04/29 03:10:13;;;;;;;43.83;21.02;;;;;;;8.94;69.49;100127.88;1761235;81;21030;-45
2022/04/29 03:12:38;;;;;;;53.65;21.20;;;;;;;8.92;70.53;100130.55;1761836;80;21003;-47
2022/04/29 03:15:17;;;;;;;53.70;23.92;;;;;;;8.92;70.03;100134.95;1761672;81;20991;-44
2022/04/29 03:20:37;;;;;;;50.03;26.40;;;;;;;8.98;68.95;100136.03;1761752;80;21039;-41
2022/04/29 03:23:04;;;;;;;52.70;26.33;;;;;;;8.98;68.64;100138.66;1761778;80;20991;-49
2022/04/29 03:25:30;;;;;;;52.00;25.80;;;;;;;8.96;68.08;100140.02;1761808;80;20990;-42
2022/04/29 03:27:56;;;;;;;53.65;25.90;;;;;;;8.96;67.84;100147.04;1761841;81;21035;-44
2022/04/29 03:30:22;;;;;;;55.83;25.70;;;;;;;8.89;68.62;100144.22;1761792;81;21499;-46
2022/04/29 03:32:57;;;;;;;47.83;25.50;;;;;;;8.85;68.44;100143.47;1761758;81;21495;-43
2022/04/29 03:35:24;;;;;;;48.87;26.60;;;;;;;8.83;69.27;100143.98;1761329;81;20980;-44
2022/04/29 03:37:54;;;;;;;43.78;25.43;;;;;;;8.84;69.26;100147.88;1761704;80;21030;-48
2022/04/29 03:40:22;;;;;;;55.48;26.60;;;;;;;8.82;69.14;100139.64;1760749;81;21015;-41
2022/04/29 03:42:53;;;;;;;47.62;25.45;;;;;;;8.82;69.00;100138.33;1761745;80;21027;-48
2022/04/29 03:45:22;;;;;;;45.03;24.20;;;;;;;8.78;69.57;100146.75;1761957;81;20983;-43
2022/04/29 03:47:48;;;;;;;64.05;27.22;;;;;;;8.77;69.94;100141.13;1762022;81;20983;-39
2022/04/29 03:50:15;;;;;;;60.43;26.25;;;;;;;8.75;69.06;100144.26;1762042;81;20978;-42
2022/04/29 03:52:50;;;;;;;50.83;24.92;;;;;;;8.70;69.47;100140.92;1762168;80;21023;-39
2022/04/29 03:55:19;;;;;;;45.15;24.12;;;;;;;8.69;69.12;100140.97;1761403;81;20964;-45
2022/04/29 03:57:45;;;;;;;57.00;26.17;;;;;;;8.71;69.03;100141.31;1761394;80;21027;-46
2022/04/29 04:00:13;;;;;;;49.30;24.90;;;;;;;8.72;69.18;100136.48;1761553;81;21023;-41
2022/04/29 04:02:39;;;;;;;46.53;24.15;;;;;;;8.70;69.95;100134.38;1761389;80;21011;-46
2022/04/29 04:05:07;;;;;;;46.77;25.75;;;;;;;8.72;69.11;100136.48;1761479;81;21027;-44
2022/04/29 04:07:33;;;;;;;43.10;25.70;;;;;;;8.71;70.40;100140.46;1761406;81;20992;-42
2022/04/29 04:09:59;;;;;;;49.58;25.27;;;;;;;8.69;70.31;100139.20;1761522;81;21524;-48
2022/04/29 04:12:25;;;;;;;43.25;24.23;;;;;;;8.68;70.58;100133.58;1761410;80;20991;-43
2022/04/29 04:14:52;;;;;;;49.88;25.00;;;;;;;8.70;70.49;100130.44;1761430;81;20995;-47
2022/04/29 04:17:18;;;;;;;47.30;24.72;;;;;;;8.71;70.44;100135.22;1761438;81;20995;-46
2022/04/29 04:19:44;;;;;;;58.87;24.95;;;;;;;8.71;70.00;100134.76;1761357;81;20991;-45
2022/04/29 04:22:10;;;;;;;51.37;25.25;;;;;;;8.71;70.52;100133.91;1761386;81;21034;-42
2022/04/29 04:24:35;;;;;;;52.80;24.90;;;;;;;8.72;70.61;100141.73;1761533;80;20979;-44
2022/04/29 04:27:01;;;;;;;48.28;25.00;;;;;;;8.76;70.83;100142.02;1761509;81;20955;-41
2022/04/29 04:29:27;;;;;;;51.28;25.70;;;;;;;8.81;70.51;100145.34;1761444;81;21460;-42
2022/04/29 04:31:53;;;;;;;55.80;27.80;;;;;;;8.87;69.81;100142.12;1761429;81;20980;-42
2022/04/29 04:37:03;;;;;;;54.80;27.05;;;;;;;8.94;69.06;100144.93;1761430;81;21425;-43
2022/04/29 04:39:29;;;;;;;59.25;26.75;;;;;;;8.93;69.67;100143.20;1761477;81;21022;-47
2022/04/29 04:41:55;;;;;;;52.55;25.92;;;;;;;8.93;69.69;100138.83;1761358;80;21653;-44
2022/04/29 04:44:21;;;;;;;50.63;26.50;;;;;;;8.92;70.39;100141.05;1761417;81;21035;-45
2022/04/29 04:46:46;;;;;;;59.73;26.57;;;;;;;8.91;70.73;100146.34;1761378;81;20967;-46
2022/04/29 04:49:13;;;;;;;56.77;28.60;;;;;;;8.90;70.88;100145.48;1761450;81;21472;-43
2022/04/29 04:51:39;;;;;;;64.07;29.48;;;;;;;8.90;70.54;100149.89;1761478;81;21449;-47
2022/04/29 04:54:05;;;;;;;60.05;31.48;;;;;;;8.92;70.04;100153.31;1761458;81;20996;-43
2022/04/29 04:56:31;;;;;;;62.88;29.90;;;;;;;8.94;70.28;100151.48;1761552;81;21013;-40
2022/04/29 04:58:57;;;;;;;66.15;31.05;;;;;;;8.97;69.71;100145.68;1761401;81;20990;-42
2022/04/29 05:01:23;;;;;;;67.87;31.20;;;;;;;8.96;69.98;100156.22;1761310;81;21086;-43
2022/04/29 05:03:49;;;;;;;63.90;31.45;;;;;;;9.00;69.08;100156.51;1761381;80;20991;-45
2022/04/29 05:06:15;;;;;;;56.10;31.33;;;;;;;9.01;69.15;100155.14;1761344;81;21011;-46
2022/04/29 05:08:41;;;;;;;62.50;32.17;;;;;;;9.04;68.94;100158.14;1761451;81;21018;-40
2022/04/29 05:11:07;;;;;;;65.08;32.23;;;;;;;9.08;69.28;100167.61;1761496;80;20987;-46
2022/04/29 05:13:32;;;;;;;63.50;33.20;;;;;;;9.10;68.96;100164.47;1744494;81;21016;-45
2022/04/29 05:15:58;;;;;;;64.32;31.95;;;;;;;9.13;68.60;100163.49;1761314;81;21484;-43
2022/04/29 05:18:24;;;;;;;74.35;37.33;;;;;;;9.16;68.24;100171.27;1761363;81;21598;-40
2022/04/29 05:20:50;;;;;;;79.97;36.05;;;;;;;9.15;68.59;100172.16;1761465;81;21127;-50
2022/04/29 05:23:16;;;;;;;73.30;35.13;;;;;;;9.17;68.58;100175.15;1761327;81;21500;-43
2022/04/29 05:25:41;;;;;;;56.88;29.87;;;;;;;9.22;67.96;100169.29;1761386;80;21508;-46
2022/04/29 05:28:07;;;;;;;57.35;29.75;;;;;;;9.29;67.63;100168.59;1761474;81;21567;-43
2022/04/29 05:30:35;;;;;;;65.30;29.90;;;;;;;9.31;67.74;100169.39;1761408;80;20959;-40
2022/04/29 05:33:02;;;;;;;55.20;28.57;;;;;;;9.34;67.65;100171.91;1761488;81;20995;-43
2022/04/29 05:35:28;;;;;;;47.95;26.70;;;;;;;9.37;67.65;100172.28;1761547;81;20983;-47
2022/04/29 05:37:55;;;;;;;45.88;26.65;;;;;;;9.40;67.41;100175.65;1761698;81;20991;-48
2022/04/29 05:43:07;;;;;;;48.68;25.57;;;;;;;9.49;66.91;100175.74;1761193;80;21860;-47
2022/04/29 05:45:33;;;;;;;59.65;25.32;;;;;;;9.56;66.81;100175.92;1761330;81;20980;-38
2022/04/29 05:47:59;;;;;;;48.23;24.57;;;;;;;9.57;66.55;100180.27;1761430;80;21392;-43
2022/04/29 05:50:25;;;;;;;36.73;21.40;;;;;;;9.63;66.34;100183.59;1761312;81;21338;-48
2022/04/29 05:52:50;;;;;;;43.95;23.27;;;;;;;9.68;65.59;100181.62;1761326;80;21030;-44
2022/04/29 05:55:16;;;;;;;41.80;22.65;;;;;;;9.64;65.43;100185.28;1761358;81;20994;-45
2022/04/29 05:57:42;;;;;;;43.00;24.95;;;;;;;9.63;65.55;100185.75;1761391;81;20986;-44
2022/04/29 06:00:09;;;;;;;46.80;23.20;;;;;;;9.67;65.27;100181.24;1761409;81;21469;-41
2022/04/29 06:02:38;;;;;;;48.78;22.85;;;;;;;9.68;64.87;100184.25;1761453;81;20987;-43
2022/04/29 06:05:03;;;;;;;47.65;21.93;;;;;;;9.70;63.78;100191.17;1761199;81;20988;-44
2022/04/29 06:07:29;;;;;;;36.83;21.95;;;;;;;9.71;63.56;100186.30;1761430;81;21460;-45
2022/04/29 06:09:55;;;;;;;39.67;23.73;;;;;;;9.73;63.23;100188.88;1761332;81;20987;-44
2022/04/29 06:12:21;;;;;;;45.28;24.05;;;;;;;9.82;63.11;100190.31;1761419;81;21412;-43
2022/04/29 06:14:47;;;;;;;42.65;23.35;;;;;;;9.79;63.33;100192.61;1761360;81;20971;-44
2022/04/29 06:17:13;;;;;;;42.62;23.38;;;;;;;9.85;63.26;100196.77;1761363;81;20984;-46
2022/04/29 06:19:39;;;;;;;45.65;22.22;;;;;;;9.91;63.20;100199.16;1761338;80;21437;-37
2022/04/29 06:22:06;;;;;;;48.90;23.18;;;;;;;9.97;63.06;100197.63;1761322;81;20991;-49
2022/04/29 06:24:33;;;;;;;42.78;22.10;;;;;;;10.03;62.75;100202.63;1761646;81;21468;-41
2022/04/29 06:26:59;;;;;;;36.33;19.27;;;;;;;10.12;62.40;100200.11;1761539;81;21054;-40
2022/04/29 06:29:25;;;;;;;29.02;17.05;;;;;;;10.16;61.14;100204.33;1761393;81;20986;-48
2022/04/29 06:31:51;;;;;;;36.73;17.87;;;;;;;10.23;60.71;100205.80;1761329;81;20984;-41
2022/04/29 06:34:17;;;;;;;27.30;15.05;;;;;;;10.22;58.13;100205.86;1761428;81;20983;-38
2022/04/29 06:36:43;;;;;;;24.67;13.78;;;;;;;10.27;58.77;100207.39;1761289;81;21485;-46
2022/04/29 06:39:08;;;;;;;23.05;13.48;;;;;;;10.32;57.83;100204.16;1761298;81;21482;-44
2022/04/29 06:41:36;;;;;;;30.60;14.58;;;;;;;10.29;56.80;100209.49;1761389;81;21035;-40
2022/04/29 06:44:03;;;;;;;23.98;13.20;;;;;;;10.36;57.29;100211.00;1751014;80;21020;-45
2022/04/29 06:46:29;;;;;;;32.85;13.83;;;;;;;10.41;56.46;100217.87;1748056;82;21034;-47
2022/04/29 06:48:55;;;;;;;20.70;12.85;;;;;;;10.37;56.82;100221.92;1748005;81;21477;-45
2022/04/29 06:51:23;;;;;;;24.10;13.32;;;;;;;10.40;56.41;100213.52;1748240;81;20992;-37
2022/04/29 06:53:49;;;;;;;24.52;13.05;;;;;;;10.44;57.28;100215.97;1747292;81;20987;-38
2022/04/29 06:56:15;;;;;;;23.87;12.28;;;;;;;10.53;57.26;100221.30;1747935;81;21014;-43
2022/04/29 06:58:41;;;;;;;30.95;13.70;;;;;;;10.61;57.08;100224.48;1748067;81;20960;-43
2022/04/29 07:01:07;;;;;;;22.42;13.72;;;;;;;10.60;56.85;100220.13;1747950;82;21159;-46
2022/04/29 07:03:33;;;;;;;21.23;13.13;;;;;;;10.60;56.67;100222.77;1747873;82;21023;-46
2022/04/29 07:06:01;;;;;;;26.55;12.35;;;;;;;10.65;56.50;100221.28;1747954;81;21520;-45
2022/04/29 07:08:28;;;;;;;21.23;12.53;;;;;;;10.69;56.38;100223.70;1747932;81;21011;-41
2022/04/29 07:10:56;;;;;;;19.55;10.88;;;;;;;10.75;56.20;100225.22;1748083;82;21456;-43
2022/04/29 07:13:22;;;;;;;20.45;10.40;;;;;;;10.81;55.99;100223.67;1748095;82;21022;-42
2022/04/29 07:15:48;;;;;;;19.77;10.20;;;;;;;10.95;55.78;100226.59;1747920;81;21038;-43
2022/04/29 07:18:16;;;;;;;21.93;9.98;;;;;;;11.01;55.59;100232.52;1747914;81;21022;-40
2022/04/29 07:20:42;;;;;;;20.08;8.85;;;;;;;11.11;55.60;100233.39;1747918;81;20999;-40
2022/04/29 07:23:08;;;;;;;17.75;7.75;;;;;;;11.10;53.76;100232.13;1747985;81;20972;-44
2022/04/29 07:25:36;;;;;;;19.73;8.60;;;;;;;11.22;54.45;100232.05;1747967;81;21032;-40
2022/04/29 07:28:02;;;;;;;24.70;8.68;;;;;;;11.29;54.00;100228.23;1748146;81;21007;-41
2022/04/29 07:30:28;;;;;;;15.85;8.58;;;;;;;11.31;54.00;100238.23;1748074;81;21037;-45
2022/04/29 07:32:54;;;;;;;14.75;8.33;;;;;;;11.33;53.70;100235.95;1746232;81;20984;-43
2022/04/29 07:43:36;;;;;;;9.70;5.72;;;;;;;11.53;52.40;100226.30;1746301;82;21016;-45
2022/04/29 07:46:03;;;;;;;11.30;5.12;;;;;;;11.65;51.32;100228.87;1746684;82;21036;-46
2022/04/29 07:48:30;;;;;;;10.75;5.42;;;;;;;11.74;51.59;100230.23;1746052;82;21535;-45
2022/04/29 07:50:56;;;;;;;11.83;5.53;;;;;;;11.88;50.85;100227.84;1745496;82;21098;-41
2022/04/29 07:53:22;;;;;;;8.03;5.60;;;;;;;11.82;49.93;100222.83;1745295;82;21001;-41
2022/04/29 07:55:48;;;;;;;10.05;5.72;;;;;;;11.92;50.34;100221.99;1745240;82;21085;-51
2022/04/29 07:58:14;;;;;;;9.35;5.30;;;;;;;11.96;49.81;100217.81;1746143;81;21066;-40
2022/04/29 08:00:43;;;;;;;13.00;5.53;;;;;;;12.01;49.11;100225.05;1747084;81;20995;-43
2022/04/29 08:03:09;;;;;;;9.00;5.90;;;;;;;12.12;48.94;100225.88;1748053;81;20980;-52
2022/04/29 08:05:35;;;;;;;13.72;6.60;;;;;;;12.08;48.63;100221.67;1748077;82;20995;-45
2022/04/29 08:08:01;;;;;;;11.57;5.30;;;;;;;12.10;48.59;100217.18;1748119;81;21080;-43
2022/04/29 08:10:31;;;;;;;11.65;6.37;;;;;;;12.20;48.06;100218.44;1748109;81;20995;-46
2022/04/29 08:12:58;;;;;;;15.43;6.70;;;;;;;12.28;48.02;100220.27;1748017;81;21104;-42
2022/04/29 08:15:28;;;;;;;12.82;6.42;;;;;;;12.27;48.21;100222.50;1748124;81;21010;-41
2022/04/29 08:17:54;;;;;;;12.33;6.40;;;;;;;12.35;48.50;100222.59;1748053;81;21512;-42
2022/04/29 08:20:21;;;;;;;8.63;5.97;;;;;;;12.49;47.93;100221.47;1748150;81;20980;-47
2022/04/29 08:22:47;;;;;;;10.85;6.30;;;;;;;12.50;48.36;100212.64;1748319;82;20980;-46
2022/04/29 08:25:15;;;;;;;6.70;4.58;;;;;;;12.67;48.29;100212.66;1748145;81;20964;-41
2022/04/29 08:27:41;;;;;;;6.45;4.80;;;;;;;12.82;46.97;100216.79;1748098;81;21093;-44
2022/04/29 08:30:08;;;;;;;6.00;4.65;;;;;;;12.96;45.70;100218.75;1748091;81;20960;-53
2022/04/29 08:32:39;;;;;;;9.20;5.70;;;;;;;12.98;44.94;100221.69;1748314;82;21039;-46
2022/04/29 08:35:09;;;;;;;7.45;4.53;;;;;;;13.08;44.23;100209.33;1748115;81;21000;-43
2022/04/29 08:37:36;;;;;;;7.22;4.60;;;;;;;13.16;44.80;100216.41;1748140;81;21147;-46
2022/04/29 08:40:03;;;;;;;;;;;;;;;13.27;44.28;100218.50;1750651;81;21000;-46
2022/04/29 08:42:36;;;;;;;8.20;3.45;;;;;;;13.41;43.05;100214.72;1748167;82;20434;-43
2022/04/29 08:45:01;;;;;;;6.03;4.10;;;;;;;13.61;43.97;100211.02;1747927;80;21117;-47
2022/04/29 08:47:28;;;;;;;10.08;4.50;;;;;;;13.70;44.22;100204.37;1748089;81;20995;-40
2022/04/29 08:49:54;;;;;;;5.42;4.25;;;;;;;13.92;43.88;100206.73;1748192;81;21003;-44
2022/04/29 08:52:20;;;;;;;8.77;4.90;;;;;;;14.07;43.89;100199.73;1748435;81;20975;-49
2022/04/29 09:00:20;;;;;;;8.60;5.25;;;;;;;14.57;42.98;100192.95;1748114;81;21632;-43
2022/04/29 09:02:46;;;;;;;11.43;4.78;;;;;;;14.71;41.70;100197.91;1748162;81;20960;-47
2022/04/29 09:05:12;;;;;;;6.95;4.67;;;;;;;14.95;42.47;100200.46;1748009;81;20972;-49
2022/04/29 09:07:53;;;;;;;8.13;3.77;;;;;;;15.11;42.01;100196.41;1748133;81;21565;-48
2022/04/29 09:10:20;;;;;;;6.00;3.70;;;;;;;15.37;41.68;100193.98;1745974;81;20967;-43
2022/04/29 09:12:46;;;;;;;;;;;;;;;15.69;40.60;100195.98;1747931;82;20964;-40
2022/04/29 09:15:14;;;;;;;8.13;4.20;;;;;;;15.99;39.81;100196.38;1747963;81;20109;-39
2022/04/29 09:17:48;;;;;;;7.08;3.75;;;;;;;16.32;39.46;100196.50;1748172;81;20972;-41
2022/04/29 09:20:18;;;;;;;6.17;4.30;;;;;;;16.52;40.06;100191.21;1748004;81;20996;-43
2022/04/29 09:22:50;;;;;;;8.35;4.15;;;;;;;17.07;39.47;100191.52;1748160;81;21031;-47
2022/04/29 09:25:17;;;;;;;5.35;4.35;;;;;;;17.55;38.61;100184.24;1748001;81;20968;-42
2022/04/29 09:28:01;;;;;;;6.15;4.03;;;;;;;17.86;35.59;100184.77;1745886;81;21517;-44
2022/04/29 09:30:40;;;;;;;6.20;3.92;;;;;;;18.35;35.16;100179.87;1747467;82;20984;-43
2022/04/29 09:33:21;;;;;;;8.80;3.72;;;;;;;18.69;36.82;100196.02;1747451;82;20991;-43
2022/04/29 09:35:49;;;;;;;7.03;4.25;;;;;;;18.85;36.48;100190.92;1747808;81;20998;-42
2022/04/29 09:41:00;;;;;;;5.92;3.65;;;;;;;19.98;35.27;100183.91;1748056;82;21512;-44
2022/04/29 09:43:44;;;;;;;4.37;3.70;;;;;;;20.84;34.77;100184.03;1750622;80;21070;-39
2022/04/29 09:46:13;;;;;;;4.20;2.90;;;;;;;20.62;32.18;100180.97;1760825;81;21035;-40
2022/04/29 09:49:04;;;;;;;6.87;3.47;;;;;;;20.72;32.25;100176.57;1761230;81;21596;-41
2022/04/29 09:51:43;;;;;;;5.47;3.40;;;;;;;21.23;30.78;100185.65;1761270;81;21528;-46
2022/04/29 09:54:30;;;;;;;6.55;2.77;;;;;;;21.43;29.94;100182.59;1761529;81;21038;-42
2022/04/29 09:57:10;;;;;;;4.70;2.62;;;;;;;21.78;30.57;100183.54;1761258;81;20971;-46
2022/04/29 09:59:44;;;;;;;3.45;2.60;;;;;;;22.42;27.14;100175.60;1761265;81;21199;-44
2022/04/29 10:02:13;;;;;;;3.40;2.45;;;;;;;22.80;28.57;100178.45;1724930;83;20979;-42
2022/04/29 10:04:42;;;;;;;6.87;2.77;;;;;;;23.29;25.37;100174.38;1725406;83;21019;-38
2022/04/29 10:07:11;;;;;;;4.37;3.00;;;;;;;23.63;25.85;100171.13;1724819;82;21007;-40
2022/04/29 10:09:43;;;;;;;5.55;2.52;;;;;;;24.05;26.88;100182.28;1725172;82;20988;-41
2022/04/29 10:12:20;;;;;;;2.95;2.30;;;;;;;24.69;25.64;100171.02;1724589;83;20988;-49
2022/04/29 10:14:49;;;;;;;4.92;2.40;;;;;;;25.15;25.35;100178.11;1725243;82;20991;-39
2022/04/29 10:22:57;;;;;;;2.40;2.05;;;;;;;26.17;20.37;100175.11;1724953;83;20975;-42
2022/04/29 10:25:26;;;;;;;2.30;2.10;;;;;;;26.50;20.42;100168.44;1720766;83;21034;-39
2022/04/29 10:27:53;;;;;;;2.22;2.02;;;;;;;26.77;18.39;100176.23;1724999;83;21019;-46
2022/04/29 10:30:28;;;;;;;3.20;2.20;;;;;;;26.96;20.36;100174.20;1725129;83;20999;-43
2022/04/29 10:33:07;;;;;;;2.20;2.00;;;;;;;27.24;20.28;100172.50;1724482;83;21004;-44
2022/04/29 10:35:45;;;;;;;4.15;2.15;;;;;;;27.28;17.68;100176.05;1725257;83;20992;-43
2022/04/29 10:38:34;;;;;;;2.87;2.12;;;;;;;27.59;17.77;100179.34;1725112;82;20991;-45
2022/04/29 10:41:19;;;;;;;3.83;1.72;;;;;;;27.62;17.42;100166.84;1706451;82;21894;-45
2022/04/29 10:43:53;;;;;;;6.65;2.08;;;;;;;28.34;16.36;100172.09;1677840;84;21047;-41
2022/04/29 10:46:23;;;;;;;2.87;1.70;;;;;;;27.69;16.81;100167.84;1682364;85;21110;-41
2022/04/29 10:48:52;;;;;;;4.65;1.65;;;;;;;27.80;16.59;100157.64;1682157;85;21020;-39
2022/04/29 10:51:32;;;;;;;7.03;1.60;;;;;;;28.31;15.43;100156.73;1682447;85;21608;-43
2022/04/29 10:53:58;;;;;;;3.12;1.92;;;;;;;28.38;15.21;100155.00;1682328;85;21070;-39
2022/04/29 10:56:35;;;;;;;3.25;1.75;;;;;;;28.76;16.28;100158.28;1682330;85;21059;-41
2022/04/29 10:59:21;;;;;;;6.58;1.85;;;;;;;29.34;15.26;100158.59;1682098;85;21634;-44
2022/04/29 11:02:13;;;;;;;5.73;2.17;;;;;;;29.58;13.92;100162.89;1682415;85;21091;-42
2022/04/29 11:04:43;;;;;;;3.33;2.10;;;;;;;29.09;14.65;100150.72;1689180;84;21079;-41
2022/04/29 11:07:42;;;;;;;3.25;1.75;;;;;;;29.09;14.65;100150.72;1710847;84;21083;-44
2022/04/29 11:10:21;;;;;;;2.95;1.50;;;;;;;29.48;14.10;100164.02;1622917;88;21080;-40
2022/04/29 11:12:59;;;;;;;1.67;1.40;;;;;;;29.66;14.48;100154.15;1622896;88;21217;-44
2022/04/29 11:15:45;;;;;;;2.55;1.75;;;;;;;28.66;13.36;100145.84;1623378;88;21128;-48
2022/04/29 11:18:25;;;;;;;2.90;1.60;;;;;;;29.05;12.67;100160.20;1624339;88;21077;-41
2022/04/29 11:20:57;;;;;;;1.62;1.52;;;;;;;29.13;13.63;100145.77;1623118;88;21797;-39
2022/04/29 11:26:13;;;;;;;3.50;2.02;;;;;;;29.02;14.40;100145.19;1674572;86;21694;-39
2022/04/29 11:28:41;;;;;;;1.82;1.70;;;;;;;28.71;14.67;100143.44;1673968;86;21062;-44
2022/04/29 11:31:09;;;;;;;2.15;1.50;;;;;;;29.88;14.14;100137.98;1674811;86;21062;-41
2022/04/29 11:33:36;;;;;;;2.58;1.50;;;;;;;30.37;13.98;100138.66;1674024;86;21584;-45
2022/04/29 11:36:11;;;;;;;2.27;2.00;;;;;;;30.32;13.45;100147.02;1674595;86;21522;-42
2022/04/29 11:38:46;;;;;;;11.10;1.90;;;;;;;28.50;14.06;100139.17;1674531;85;21636;-38
2022/04/29 11:41:22;;;;;;;2.35;1.50;;;;;;;28.51;13.70;100147.11;1675315;86;21968;-38
2022/04/29 11:43:50;;;;;;;2.95;1.75;;;;;;;28.45;13.45;100140.22;1698059;80;21046;-42
2022/04/29 11:46:18;;;;;;;9.08;1.70;;;;;;;28.69;14.52;100140.59;1760455;81;21067;-44
2022/04/29 11:48:52;;;;;;;3.47;1.47;;;;;;;29.00;12.16;100142.34;1760263;81;21102;-42
2022/04/29 11:51:18;;;;;;;2.15;1.72;;;;;;;29.25;12.37;100133.46;1760174;81;21015;-43
2022/04/29 11:54:03;;;;;;;3.70;1.30;;;;;;;29.53;11.92;100138.25;1760360;81;21011;-45
2022/04/29 11:56:36;;;;;;;2.52;1.30;;;;;;;29.84;12.11;100136.16;1761492;81;21516;-44
2022/04/29 11:59:07;;;;;;;2.35;1.90;;;;;;;29.94;12.79;100136.38;1760687;81;20991;-44
2022/04/29 12:01:34;;;;;;;4.65;1.57;;;;;;;29.94;12.79;100136.38;1756656;81;21014;-42